Terminal Aerodrome Forecast
Issued by NWS

Home | Current Version | Previous Version | Graphics & Text | Print | Product List | Glossary On
Versions: 1 2 3 4 5 6 7 8 9 10 11 12 13 14
000
FTUS43 KMPX 280520
TAFRNH
TAF
KRNH 280520Z 2806/0106 20004KT P6SM SKC
     FM280900 16007KT P6SM SKC
     FM282300 17012KT P6SM SCT040 BKN090
     FM010300 17009KT P6SM OVC030=

USA.gov is the U.S. government's official web portal to all federal, state and local government web resources and services.